createdAt,value
2023-02-15T00:02:05.111Z,24.93
2023-02-15T00:04:46.855Z,23.20
2023-02-15T00:07:17.872Z,23.33
2023-02-15T00:09:47.220Z,21.20
2023-02-15T00:12:16.257Z,24.63
2023-02-15T00:14:44.587Z,26.57
2023-02-15T00:17:12.674Z,20.07
2023-02-15T00:19:42.376Z,18.10
2023-02-15T00:22:10.682Z,20.37
2023-02-15T00:24:40.808Z,24.97
2023-02-15T00:27:10.948Z,21.17
2023-02-15T00:29:38.609Z,24.97
2023-02-15T00:32:07.174Z,22.87
2023-02-15T00:34:35.243Z,19.33
2023-02-15T00:37:03.410Z,20.80
2023-02-15T00:39:31.493Z,24.17
2023-02-15T00:42:01.663Z,21.60
2023-02-15T00:44:29.661Z,21.83
2023-02-15T00:46:57.900Z,21.50
2023-02-15T00:49:26.156Z,23.30
2023-02-15T00:51:55.409Z,22.87
2023-02-15T00:54:23.145Z,22.87
2023-02-15T00:56:51.285Z,20.43
2023-02-15T00:59:20.687Z,20.97
2023-02-15T01:01:49.239Z,27.63
2023-02-15T01:04:17.600Z,20.97
2023-02-15T01:06:45.796Z,21.83
2023-02-15T01:09:14.565Z,26.33
2023-02-15T01:11:43.083Z,20.57
2023-02-15T01:14:12.041Z,22.00
2023-02-15T01:16:41.399Z,20.67
2023-02-15T01:19:09.743Z,26.30
2023-02-15T01:21:37.336Z,24.00
2023-02-15T01:24:06.376Z,24.77
2023-02-15T01:26:34.577Z,24.07
2023-02-15T01:29:02.432Z,27.93
2023-02-15T01:31:30.561Z,19.50
2023-02-15T01:33:59.751Z,23.10
2023-02-15T01:36:27.502Z,21.23
2023-02-15T01:38:55.104Z,24.77
2023-02-15T01:41:24.103Z,23.03
2023-02-15T01:43:54.308Z,22.93
2023-02-15T01:46:29.324Z,23.53
2023-02-15T01:49:04.852Z,22.50
2023-02-15T01:51:36.711Z,31.90
2023-02-15T01:54:12.398Z,24.87
2023-02-15T01:56:42.401Z,20.00
2023-02-15T01:59:13.947Z,21.00
2023-02-15T02:01:43.319Z,23.63
2023-02-15T02:04:19.808Z,22.27
2023-02-15T02:06:50.605Z,20.10
2023-02-15T02:09:19.096Z,21.13
2023-02-15T02:11:49.405Z,24.33
2023-02-15T02:14:18.746Z,21.53
2023-02-15T02:16:54.932Z,24.57
2023-02-15T02:20:17.691Z,25.93
2023-02-15T02:23:11.113Z,25.50
2023-02-15T02:26:08.379Z,26.63
2023-02-15T02:29:09.715Z,25.40
2023-02-15T02:31:54.014Z,31.43
2023-02-15T02:34:30.922Z,28.63
2023-02-15T02:37:05.501Z,25.60
2023-02-15T02:39:42.019Z,29.10
2023-02-15T02:42:17.180Z,27.57
2023-02-15T02:44:48.831Z,25.03
2023-02-15T02:47:25.436Z,22.50
2023-02-15T02:50:01.327Z,24.60
2023-02-15T02:52:44.404Z,30.90
2023-02-15T02:55:17.705Z,24.17
2023-02-15T02:57:54.064Z,24.30
2023-02-15T03:00:23.664Z,23.83
2023-02-15T03:02:56.753Z,24.27
2023-02-15T03:05:31.457Z,26.40
2023-02-15T03:08:07.133Z,24.57
2023-02-15T03:10:38.925Z,23.60
2023-02-15T03:13:07.070Z,25.20
2023-02-15T03:15:52.419Z,21.00
2023-02-15T03:18:27.538Z,22.47
2023-02-15T03:20:57.473Z,26.83
2023-02-15T03:23:27.668Z,18.50
2023-02-15T03:26:00.679Z,23.70
2023-02-15T03:28:37.950Z,23.50
2023-02-15T03:31:09.492Z,25.43
2023-02-15T03:33:43.317Z,22.20
2023-02-15T03:36:20.494Z,22.73
2023-02-15T03:38:53.799Z,24.60
2023-02-15T03:41:26.088Z,25.37
2023-02-15T03:43:57.014Z,21.90
2023-02-15T03:46:29.216Z,19.77
2023-02-15T03:49:00.982Z,24.73
2023-02-15T03:51:35.832Z,23.33
2023-02-15T03:54:06.390Z,28.30
2023-02-15T03:56:36.906Z,24.57
2023-02-15T03:59:23.391Z,20.90
2023-02-15T04:02:01.691Z,22.47
2023-02-15T04:04:35.142Z,26.80
2023-02-15T04:07:06.018Z,25.37
2023-02-15T04:09:56.991Z,22.00
2023-02-15T04:12:25.098Z,24.30
2023-02-15T04:15:10.282Z,23.00
2023-02-15T04:17:38.532Z,23.37
2023-02-15T04:20:25.331Z,27.03
2023-02-15T04:23:12.586Z,21.20
2023-02-15T04:25:41.156Z,21.03
2023-02-15T04:28:09.355Z,24.30
2023-02-15T04:30:37.836Z,20.80
2023-02-15T04:33:05.587Z,20.50
2023-02-15T04:35:34.500Z,18.80
2023-02-15T04:38:03.968Z,21.30
2023-02-15T04:40:31.733Z,25.97
2023-02-15T04:42:59.404Z,21.90
2023-02-15T04:45:28.115Z,22.83
2023-02-15T04:47:56.282Z,21.03
2023-02-15T04:50:24.127Z,30.70
2023-02-15T04:52:52.351Z,21.73
2023-02-15T04:55:21.398Z,21.73
2023-02-15T04:57:49.496Z,19.87
2023-02-15T05:00:17.665Z,24.00
2023-02-15T05:02:45.923Z,26.23
2023-02-15T05:05:16.452Z,23.50
2023-02-15T05:07:44.187Z,23.87
2023-02-15T05:10:12.537Z,24.97
2023-02-15T05:12:41.588Z,22.57
2023-02-15T05:15:10.728Z,25.73
2023-02-15T05:17:38.677Z,24.83
2023-02-15T05:20:08.348Z,23.40
2023-02-15T05:22:36.324Z,23.47
2023-02-15T05:25:21.675Z,21.77
2023-02-15T05:28:09.060Z,22.47
2023-02-15T05:30:37.004Z,20.27
2023-02-15T05:33:05.540Z,24.30
2023-02-15T05:35:33.825Z,21.53
2023-02-15T05:38:01.563Z,24.30
2023-02-15T05:40:29.244Z,19.60
2023-02-15T05:42:58.660Z,25.07
2023-02-15T05:45:26.801Z,25.77
2023-02-15T05:47:55.312Z,24.37
2023-02-15T05:50:22.930Z,25.07
2023-02-15T05:52:52.516Z,22.50
2023-02-15T05:55:21.021Z,27.70
2023-02-15T05:57:48.609Z,28.30
2023-02-15T06:00:19.021Z,23.70
2023-02-15T06:02:46.898Z,23.50
2023-02-15T06:05:15.205Z,27.27
2023-02-15T06:07:45.599Z,26.63
2023-02-15T06:10:13.593Z,25.30
2023-02-15T06:12:42.442Z,20.10
2023-02-15T06:15:10.817Z,21.03
2023-02-15T06:17:42.772Z,21.07
2023-02-15T06:20:11.538Z,21.33
2023-02-15T06:22:40.417Z,18.10
2023-02-15T06:25:10.804Z,17.83
2023-02-15T06:27:38.904Z,24.40
2023-02-15T06:30:08.367Z,24.47
2023-02-15T06:32:36.020Z,21.63
2023-02-15T06:35:06.202Z,23.97
2023-02-15T06:37:34.557Z,21.53
2023-02-15T06:40:03.999Z,27.10
2023-02-15T06:42:31.924Z,23.77
2023-02-15T06:45:01.564Z,21.10
2023-02-15T06:47:29.365Z,24.30
2023-02-15T06:49:57.776Z,25.30
2023-02-15T06:52:26.846Z,24.67
2023-02-15T06:54:55.074Z,28.50
2023-02-15T06:57:22.652Z,24.73
2023-02-15T06:59:50.690Z,26.50
2023-02-15T07:02:18.431Z,19.43
2023-02-15T07:04:46.065Z,24.37
2023-02-15T07:07:14.572Z,24.20
2023-02-15T07:09:43.745Z,26.20
2023-02-15T07:12:29.707Z,21.47
2023-02-15T07:14:59.455Z,26.20
2023-02-15T07:17:35.894Z,27.00
2023-02-15T07:20:05.818Z,21.97
2023-02-15T07:22:34.965Z,25.47
2023-02-15T07:25:05.098Z,24.60
2023-02-15T07:27:33.401Z,27.43
2023-02-15T07:30:02.356Z,26.57
2023-02-15T07:32:31.671Z,25.93
2023-02-15T07:35:00.378Z,28.53
2023-02-15T07:37:28.836Z,25.43
2023-02-15T07:39:56.916Z,35.40
2023-02-15T07:42:25.897Z,32.87
2023-02-15T07:44:54.226Z,38.80
2023-02-15T07:47:21.868Z,24.80
2023-02-15T07:49:50.644Z,26.60
2023-02-15T07:52:18.287Z,24.70
2023-02-15T07:54:45.897Z,24.80
2023-02-15T07:57:13.943Z,23.90
2023-02-15T07:59:43.056Z,21.80
2023-02-15T08:02:11.802Z,29.63
2023-02-15T08:04:40.175Z,29.93
2023-02-15T08:07:08.535Z,27.80
2023-02-15T08:09:36.370Z,27.07
2023-02-15T08:12:05.469Z,23.90
2023-02-15T08:14:34.110Z,21.47
2023-02-15T08:17:03.673Z,24.53
2023-02-15T08:19:34.050Z,26.30
2023-02-15T08:22:04.482Z,25.00
2023-02-15T08:24:34.145Z,25.77
2023-02-15T08:27:06.097Z,24.93
2023-02-15T08:29:35.898Z,23.43
2023-02-15T08:32:08.145Z,24.77
2023-02-15T08:34:38.727Z,23.90
2023-02-15T08:37:06.899Z,24.27
2023-02-15T08:39:35.843Z,27.60
2023-02-15T08:42:04.143Z,27.50
2023-02-15T08:44:32.103Z,24.73
2023-02-15T08:47:04.490Z,26.07
2023-02-15T08:49:34.191Z,29.57
2023-02-15T08:52:01.872Z,27.53
2023-02-15T08:54:30.334Z,27.53
2023-02-15T08:56:57.906Z,26.33
2023-02-15T08:59:27.717Z,23.63
2023-02-15T09:01:56.292Z,28.00
2023-02-15T09:04:24.674Z,28.10
2023-02-15T09:06:54.141Z,29.03
2023-02-15T09:09:22.369Z,24.40
2023-02-15T09:11:57.701Z,23.10
2023-02-15T09:14:27.586Z,25.23
2023-02-15T09:16:56.633Z,29.60
2023-02-15T09:19:26.026Z,25.50
2023-02-15T09:21:55.386Z,32.20
2023-02-15T09:24:24.014Z,24.37
2023-02-15T09:26:51.680Z,24.77
2023-02-15T09:29:20.680Z,29.40
2023-02-15T09:31:51.331Z,23.83
2023-02-15T09:34:21.386Z,24.20
2023-02-15T09:36:51.060Z,21.60
2023-02-15T09:39:24.463Z,24.37
2023-02-15T09:42:27.225Z,24.70
2023-02-15T09:45:08.192Z,22.80
2023-02-15T09:47:55.404Z,23.70
2023-02-15T09:50:30.966Z,26.63
2023-02-15T09:53:32.214Z,24.07
2023-02-15T09:56:08.621Z,23.80
2023-02-15T09:58:48.415Z,20.97
2023-02-15T10:01:27.337Z,24.50
2023-02-15T10:04:13.104Z,18.13
2023-02-15T10:06:49.934Z,18.07
2023-02-15T10:09:35.277Z,19.00
2023-02-15T10:12:28.946Z,20.70
2023-02-15T10:15:20.165Z,17.70
2023-02-15T10:18:03.443Z,21.77
2023-02-15T10:20:41.627Z,17.70
2023-02-15T10:23:24.952Z,19.27
2023-02-15T10:26:02.531Z,20.10
2023-02-15T10:28:43.156Z,19.73
2023-02-15T10:31:22.592Z,19.80
2023-02-15T10:34:05.436Z,21.50
2023-02-15T10:36:43.956Z,18.17
2023-02-15T10:39:23.594Z,19.10
2023-02-15T10:42:00.810Z,19.70
2023-02-15T10:44:43.474Z,19.80
2023-02-15T10:47:26.247Z,18.97
2023-02-15T10:50:08.380Z,19.20
2023-02-15T10:52:55.095Z,17.20
2023-02-15T10:55:32.878Z,17.57
2023-02-15T10:58:08.667Z,19.33
2023-02-15T11:00:43.779Z,17.80
2023-02-15T11:03:26.376Z,17.70
2023-02-15T11:06:04.715Z,18.03
2023-02-15T11:08:36.624Z,19.73
2023-02-15T11:11:08.212Z,16.93
2023-02-15T11:13:41.710Z,20.00
2023-02-15T11:16:18.653Z,17.50
2023-02-15T11:18:52.619Z,16.73
2023-02-15T11:21:24.435Z,16.70
2023-02-15T11:23:53.492Z,16.73
2023-02-15T11:26:26.844Z,21.33
2023-02-15T11:28:59.695Z,18.87
2023-02-15T11:31:37.905Z,22.50
2023-02-15T11:34:14.840Z,16.60
2023-02-15T11:36:44.043Z,19.67
2023-02-15T11:39:15.843Z,14.47
2023-02-15T11:41:51.465Z,17.20
2023-02-15T11:44:25.711Z,20.23
2023-02-15T11:46:54.728Z,13.70
2023-02-15T11:49:26.842Z,15.80
2023-02-15T11:51:56.501Z,12.40
2023-02-15T11:54:30.569Z,14.87
2023-02-15T11:57:03.606Z,17.83
2023-02-15T11:59:37.670Z,12.97
2023-02-15T12:02:18.396Z,14.80
2023-02-15T12:04:54.439Z,14.30
2023-02-15T12:07:26.596Z,13.93
2023-02-15T12:10:02.714Z,12.77
2023-02-15T12:12:31.957Z,13.00
2023-02-15T12:15:01.763Z,13.20
2023-02-15T12:17:35.000Z,11.27
2023-02-15T12:20:06.441Z,16.73
2023-02-15T12:22:37.122Z,15.57
2023-02-15T12:25:22.684Z,14.70
2023-02-15T12:27:53.339Z,15.10
2023-02-15T12:30:25.656Z,13.70
2023-02-15T12:33:00.973Z,15.53
2023-02-15T12:35:32.455Z,14.53
2023-02-15T12:38:05.070Z,19.60
2023-02-15T12:40:34.284Z,16.93
2023-02-15T12:43:09.384Z,17.73
2023-02-15T12:45:39.337Z,15.90
2023-02-15T12:48:17.867Z,19.37
2023-02-15T12:50:47.354Z,16.00
2023-02-15T12:53:20.015Z,16.60
2023-02-15T12:55:57.247Z,18.50
2023-02-15T12:58:26.296Z,18.63
2023-02-15T13:01:14.729Z,16.33
2023-02-15T13:03:58.481Z,18.97
2023-02-15T13:06:27.200Z,19.97
2023-02-15T13:08:56.823Z,17.07
2023-02-15T13:11:31.163Z,18.07
2023-02-15T13:14:02.317Z,22.37
2023-02-15T13:16:34.272Z,18.70
2023-02-15T13:19:08.399Z,30.53
2023-02-15T13:21:41.312Z,21.90
2023-02-15T13:24:19.885Z,23.07
2023-02-15T13:26:49.129Z,20.70
2023-02-15T13:29:23.659Z,23.60
2023-02-15T13:31:54.162Z,22.53
2023-02-15T13:34:27.614Z,20.33
2023-02-15T13:37:02.452Z,23.77
2023-02-15T13:39:36.959Z,19.57
2023-02-15T13:42:22.089Z,24.07
2023-02-15T13:45:11.360Z,21.10
2023-02-15T13:47:50.135Z,19.70
2023-02-15T13:50:33.470Z,19.70
2023-02-15T13:53:21.517Z,18.47
2023-02-15T13:55:53.694Z,21.60
2023-02-15T13:58:46.747Z,26.10
2023-02-15T14:01:25.777Z,22.10
2023-02-15T14:04:31.910Z,21.90
2023-02-15T14:07:21.317Z,18.73
2023-02-15T14:09:59.719Z,21.10
2023-02-15T14:12:39.250Z,18.73
2023-02-15T14:15:20.060Z,22.50
2023-02-15T14:18:00.542Z,22.33
2023-02-15T14:20:41.279Z,19.73
2023-02-15T14:23:20.702Z,23.50
2023-02-15T14:25:56.085Z,22.00
2023-02-15T14:28:35.594Z,21.47
2023-02-15T14:31:07.957Z,25.77
2023-02-15T14:33:40.818Z,20.97
2023-02-15T14:36:10.367Z,19.40
2023-02-15T14:38:55.227Z,21.43
2023-02-15T14:41:30.363Z,19.63
2023-02-15T14:44:03.397Z,21.40
2023-02-15T14:46:38.213Z,24.90
2023-02-15T14:49:12.601Z,20.77
2023-02-15T14:52:00.004Z,20.10
2023-02-15T14:54:58.352Z,22.80
2023-02-15T14:57:28.757Z,17.87
2023-02-15T14:59:59.605Z,20.83
2023-02-15T15:02:31.084Z,22.03
2023-02-15T15:05:05.024Z,21.50
2023-02-15T15:07:41.159Z,20.67
2023-02-15T15:10:38.978Z,25.37
2023-02-15T15:13:46.447Z,24.07
2023-02-15T15:16:54.991Z,22.97
2023-02-15T15:20:08.377Z,25.63
2023-02-15T15:22:38.822Z,22.03
2023-02-15T15:25:12.720Z,23.27
2023-02-15T15:27:46.952Z,21.67
2023-02-15T15:31:03.310Z,22.83
2023-02-15T15:34:06.706Z,23.63
2023-02-15T15:37:04.166Z,25.80
2023-02-15T15:39:55.082Z,24.85
2023-02-15T15:42:34.566Z,27.43
2023-02-15T15:45:36.544Z,22.40
2023-02-15T15:48:25.061Z,24.43
2023-02-15T15:50:55.941Z,28.20
2023-02-15T15:53:26.363Z,27.33
2023-02-15T15:55:55.604Z,32.23
2023-02-15T15:58:26.197Z,25.53
2023-02-15T16:01:00.449Z,25.17
2023-02-15T16:03:30.079Z,29.00
2023-02-15T16:06:01.405Z,26.60
2023-02-15T16:08:32.243Z,30.70
2023-02-15T16:11:01.009Z,26.00
2023-02-15T16:13:30.159Z,30.13
2023-02-15T16:15:58.081Z,30.07
2023-02-15T16:18:28.484Z,26.50
2023-02-15T16:20:59.459Z,31.73
2023-02-15T16:23:52.295Z,27.50
2023-02-15T16:26:38.823Z,29.00
2023-02-15T16:29:17.607Z,29.90
2023-02-15T16:32:00.785Z,33.40
2023-02-15T16:34:33.173Z,25.00
2023-02-15T16:37:28.025Z,28.03
2023-02-15T16:39:56.715Z,21.97
2023-02-15T16:42:25.255Z,26.13
2023-02-15T16:45:03.266Z,28.07
2023-02-15T16:47:33.340Z,22.60
2023-02-15T16:50:05.317Z,25.73
2023-02-15T16:52:33.070Z,25.47
2023-02-15T16:55:02.682Z,27.50
2023-02-15T16:57:34.225Z,33.20
2023-02-15T17:00:08.201Z,25.10
2023-02-15T17:02:55.132Z,31.00
2023-02-15T17:05:24.579Z,26.40
2023-02-15T17:08:05.390Z,27.27
2023-02-15T17:10:37.090Z,24.70
2023-02-15T17:13:06.677Z,22.90
2023-02-15T17:15:38.235Z,21.23
2023-02-15T17:18:12.525Z,16.17
2023-02-15T17:20:42.719Z,19.50
2023-02-15T17:23:24.583Z,23.77
2023-02-15T17:25:53.036Z,17.47
2023-02-15T17:28:24.135Z,18.30
2023-02-15T17:30:55.366Z,16.50
2023-02-15T17:33:30.525Z,16.20
2023-02-15T17:36:10.718Z,16.27
2023-02-15T17:38:40.128Z,17.93
2023-02-15T17:41:08.156Z,14.73
2023-02-15T17:43:36.653Z,15.93
2023-02-15T17:46:06.005Z,16.90
2023-02-15T17:48:36.765Z,13.80
2023-02-15T17:51:06.731Z,18.63
2023-02-15T17:53:34.891Z,21.90
2023-02-15T17:56:10.371Z,16.23
2023-02-15T17:58:39.220Z,15.93
2023-02-15T18:01:31.203Z,18.33
2023-02-15T18:04:16.416Z,18.73
2023-02-15T18:07:03.290Z,19.70
2023-02-15T18:09:48.694Z,17.80
2023-02-15T18:12:22.043Z,19.00
2023-02-15T18:14:50.560Z,22.70
2023-02-15T18:17:20.145Z,17.67
2023-02-15T18:19:48.086Z,19.07
2023-02-15T18:22:18.991Z,18.60
2023-02-15T18:24:47.199Z,16.77
2023-02-15T18:27:16.704Z,21.40
2023-02-15T18:29:44.825Z,17.63
2023-02-15T18:32:18.289Z,18.97
2023-02-15T18:34:49.438Z,17.77
2023-02-15T18:37:21.023Z,19.03
2023-02-15T18:39:50.195Z,20.23
2023-02-15T18:42:31.395Z,18.87
2023-02-15T18:45:00.854Z,25.63
2023-02-15T18:47:28.557Z,22.70
2023-02-15T18:49:57.545Z,19.90
2023-02-15T18:52:35.579Z,23.60
2023-02-15T18:55:07.893Z,23.60
2023-02-15T18:57:35.650Z,20.73
2023-02-15T19:00:05.623Z,23.77
2023-02-15T19:02:33.557Z,19.97
2023-02-15T19:05:02.578Z,23.33
2023-02-15T19:07:31.874Z,19.33
2023-02-15T19:10:02.420Z,19.80
2023-02-15T19:12:32.013Z,24.00
2023-02-15T19:14:59.618Z,21.60
2023-02-15T19:17:28.234Z,23.50
2023-02-15T19:19:55.889Z,22.80
2023-02-15T19:22:28.382Z,20.73
2023-02-15T19:24:58.894Z,24.57
2023-02-15T19:27:31.742Z,22.60
2023-02-15T19:30:01.713Z,22.70
2023-02-15T19:32:30.605Z,23.53
2023-02-15T19:34:58.343Z,21.47
2023-02-15T19:37:35.867Z,26.40
2023-02-15T19:40:04.047Z,27.63
2023-02-15T19:42:33.757Z,28.97
2023-02-15T19:45:02.180Z,27.00
2023-02-15T19:47:29.843Z,27.87
2023-02-15T19:50:03.675Z,30.50
2023-02-15T19:52:32.842Z,28.30
2023-02-15T19:55:01.722Z,23.03
2023-02-15T19:57:31.044Z,25.63
2023-02-15T20:00:09.317Z,24.43
2023-02-15T20:02:43.717Z,24.93
2023-02-15T20:05:11.427Z,20.57
2023-02-15T20:07:41.174Z,24.00
2023-02-15T20:10:16.601Z,23.23
2023-02-15T20:12:44.932Z,28.90
2023-02-15T20:15:21.142Z,26.40
2023-02-15T20:17:49.582Z,26.90
2023-02-15T20:20:19.154Z,22.77
2023-02-15T20:22:51.377Z,24.23
2023-02-15T20:25:22.306Z,24.83
2023-02-15T20:27:50.054Z,21.43
2023-02-15T20:30:20.426Z,23.27
2023-02-15T20:32:49.080Z,21.80
2023-02-15T20:35:19.227Z,20.33
2023-02-15T20:37:49.106Z,19.53
2023-02-15T20:40:19.133Z,25.40
2023-02-15T20:42:47.487Z,25.67
2023-02-15T20:45:17.805Z,23.93
2023-02-15T20:47:48.912Z,26.37
2023-02-15T20:50:21.199Z,26.53
2023-02-15T20:52:53.832Z,24.90
2023-02-15T20:55:23.857Z,29.33
2023-02-15T20:57:52.133Z,25.63
2023-02-15T21:00:22.112Z,28.20
2023-02-15T21:02:52.041Z,23.70
2023-02-15T21:05:22.910Z,27.67
2023-02-15T21:07:53.937Z,27.53
2023-02-15T21:10:24.075Z,24.50
2023-02-15T21:12:52.129Z,24.13
2023-02-15T21:15:32.906Z,30.60
2023-02-15T21:18:02.907Z,30.03
2023-02-15T21:20:34.144Z,34.53
2023-02-15T21:23:06.539Z,35.30
2023-02-15T21:25:36.840Z,29.97
2023-02-15T21:28:07.791Z,32.00
2023-02-15T21:30:35.578Z,28.30
2023-02-15T21:33:04.418Z,28.83
2023-02-15T21:35:32.088Z,26.30
2023-02-15T21:38:00.179Z,29.80
2023-02-15T21:40:32.667Z,29.23
2023-02-15T21:43:18.642Z,31.17
2023-02-15T21:46:12.498Z,24.50
2023-02-15T21:48:41.141Z,26.03
2023-02-15T21:51:26.397Z,24.43
2023-02-15T21:53:54.750Z,26.33
2023-02-15T21:56:24.727Z,30.03
2023-02-15T21:58:52.428Z,26.43
2023-02-15T22:01:26.032Z,22.03
2023-02-15T22:03:55.596Z,26.53
2023-02-15T22:06:23.877Z,23.97
2023-02-15T22:08:51.964Z,25.60
2023-02-15T22:11:23.026Z,29.83
2023-02-15T22:13:52.772Z,29.67
2023-02-15T22:16:22.391Z,26.80
2023-02-15T22:18:50.796Z,33.90
2023-02-15T22:21:19.269Z,29.50
2023-02-15T22:23:47.196Z,31.10
2023-02-15T22:26:22.102Z,26.77
2023-02-15T22:28:50.056Z,33.67
2023-02-15T22:31:21.993Z,27.37
2023-02-15T22:33:51.058Z,31.13
2023-02-15T22:36:24.809Z,26.10
2023-02-15T22:38:53.226Z,27.70
2023-02-15T22:41:23.994Z,30.13
2023-02-15T22:43:51.687Z,23.70
2023-02-15T22:46:23.521Z,30.13
2023-02-15T22:48:52.343Z,21.30
2023-02-15T22:51:22.629Z,23.63
2023-02-15T22:53:52.299Z,22.73
2023-02-15T22:56:27.275Z,22.17
2023-02-15T22:58:59.333Z,23.87
2023-02-15T23:01:31.996Z,23.10
2023-02-15T23:04:03.070Z,28.60
2023-02-15T23:06:31.329Z,31.13
2023-02-15T23:09:00.645Z,26.90
2023-02-15T23:11:28.689Z,20.33
2023-02-15T23:13:56.424Z,22.97
2023-02-15T23:16:24.491Z,24.03
2023-02-15T23:18:53.532Z,22.67
2023-02-15T23:21:24.963Z,23.03
2023-02-15T23:23:54.679Z,20.67
2023-02-15T23:26:25.133Z,22.87
2023-02-15T23:28:53.392Z,22.37
2023-02-15T23:31:23.924Z,21.30
2023-02-15T23:33:54.260Z,25.90
2023-02-15T23:36:28.942Z,22.83
2023-02-15T23:38:58.399Z,20.50
2023-02-15T23:41:29.392Z,18.93
2023-02-15T23:44:01.219Z,20.07
2023-02-15T23:46:36.332Z,24.23
2023-02-15T23:49:15.236Z,19.57
2023-02-15T23:51:44.598Z,21.20
2023-02-15T23:54:13.532Z,25.40
2023-02-15T23:56:41.761Z,24.37
2023-02-15T23:59:13.470Z,19.93
